createdAt,value
2024-03-14T00:00:07.563Z,6.42
2024-03-14T00:02:34.043Z,6.41
2024-03-14T00:05:00.648Z,6.38
2024-03-14T00:07:27.469Z,6.33
2024-03-14T00:09:53.956Z,6.30
2024-03-14T00:12:20.361Z,6.24
2024-03-14T00:14:51.505Z,6.21
2024-03-14T00:17:24.097Z,6.19
2024-03-14T00:19:52.388Z,6.18
2024-03-14T00:22:19.162Z,6.18
2024-03-14T00:24:46.767Z,6.18
2024-03-14T00:27:14.614Z,6.22
2024-03-14T00:29:43.507Z,6.23
2024-03-14T00:32:10.116Z,6.24
2024-03-14T00:34:37.251Z,6.23
2024-03-14T00:37:04.026Z,6.25
2024-03-14T00:39:33.079Z,6.27
2024-03-14T00:41:59.662Z,6.24
2024-03-14T00:44:26.288Z,6.22
2024-03-14T00:46:52.701Z,6.26
2024-03-14T00:49:19.175Z,6.20
2024-03-14T00:51:45.798Z,6.25
2024-03-14T00:54:12.236Z,6.22
2024-03-14T00:56:38.691Z,6.15
2024-03-14T00:59:05.091Z,6.11
2024-03-14T01:01:31.498Z,6.08
2024-03-14T01:03:58.015Z,6.09
2024-03-14T01:06:26.250Z,6.09
2024-03-14T01:08:54.371Z,6.08
2024-03-14T01:11:20.850Z,6.09
2024-03-14T01:13:47.482Z,6.10
2024-03-14T01:16:14.886Z,6.06
2024-03-14T01:18:41.579Z,6.04
2024-03-14T01:21:09.535Z,6.02
2024-03-14T01:23:37.981Z,6.04
2024-03-14T01:26:05.114Z,6.06
2024-03-14T01:28:31.549Z,6.05
2024-03-14T01:31:00.117Z,6.06
2024-03-14T01:33:26.978Z,6.03
2024-03-14T01:35:59.691Z,6.06
2024-03-14T01:38:27.788Z,6.03
2024-03-14T01:40:54.209Z,6.04
2024-03-14T01:43:20.657Z,6.02
2024-03-14T01:45:49.952Z,6.00
2024-03-14T01:48:16.450Z,6.00
2024-03-14T01:50:43.697Z,6.01
2024-03-14T01:53:11.278Z,5.98
2024-03-14T01:55:38.923Z,6.01
2024-03-14T01:58:05.985Z,6.01
2024-03-14T02:00:40.366Z,6.02
2024-03-14T02:03:07.841Z,5.99
2024-03-14T02:05:47.107Z,5.99
2024-03-14T02:08:13.776Z,5.98
2024-03-14T02:13:11.707Z,5.98
2024-03-14T02:15:39.678Z,5.95
2024-03-14T02:18:06.841Z,5.95
2024-03-14T02:20:33.362Z,5.95
2024-03-14T02:22:59.876Z,5.97
2024-03-14T02:25:26.792Z,5.94
2024-03-14T02:27:53.224Z,5.95
2024-03-14T02:30:20.100Z,5.91
2024-03-14T02:32:46.912Z,5.89
2024-03-14T02:35:13.544Z,5.89
2024-03-14T02:37:40.280Z,5.86
2024-03-14T02:40:07.810Z,5.88
2024-03-14T02:42:35.130Z,5.85
2024-03-14T02:45:01.898Z,5.89
2024-03-14T02:47:28.908Z,5.89
2024-03-14T02:49:58.231Z,5.90
2024-03-14T02:52:24.801Z,5.89
2024-03-14T02:54:51.788Z,5.87
2024-03-14T02:57:18.351Z,5.83
2024-03-14T02:59:44.815Z,5.84
2024-03-14T03:02:12.630Z,5.87
2024-03-14T03:04:39.847Z,5.89
2024-03-14T03:07:07.171Z,5.86
2024-03-14T03:09:37.129Z,5.82
2024-03-14T03:12:04.439Z,5.78
2024-03-14T03:14:31.502Z,5.76
2024-03-14T03:16:57.945Z,5.77
2024-03-14T03:19:24.337Z,5.74
2024-03-14T03:21:50.721Z,5.72
2024-03-14T03:24:17.145Z,5.70
2024-03-14T03:26:43.649Z,5.72
2024-03-14T03:29:13.423Z,5.72
2024-03-14T03:31:39.882Z,5.71
2024-03-14T03:34:08.264Z,5.74
2024-03-14T03:36:34.990Z,5.71
2024-03-14T03:39:01.646Z,5.76
2024-03-14T03:41:31.230Z,5.78
2024-03-14T03:43:58.204Z,5.76
2024-03-14T03:46:25.041Z,5.74
2024-03-14T03:48:52.634Z,5.79
2024-03-14T03:51:19.769Z,5.78
2024-03-14T03:53:47.277Z,5.79
2024-03-14T03:56:15.054Z,5.79
2024-03-14T03:58:43.931Z,5.80
2024-03-14T04:01:13.681Z,5.79
2024-03-14T04:03:43.225Z,5.82
2024-03-14T04:06:16.647Z,5.78
2024-03-14T04:08:46.676Z,5.77
2024-03-14T04:11:13.831Z,5.76
2024-03-14T04:13:40.417Z,5.73
2024-03-14T04:16:06.980Z,5.74
2024-03-14T04:18:34.036Z,5.71
2024-03-14T04:21:00.641Z,5.75
2024-03-14T04:23:27.158Z,5.75
2024-03-14T04:25:57.356Z,5.76
2024-03-14T04:28:26.988Z,5.76
2024-03-14T04:30:53.549Z,5.81
2024-03-14T04:33:20.430Z,5.77
2024-03-14T04:35:50.599Z,5.78
2024-03-14T04:38:19.589Z,5.75
2024-03-14T04:40:46.039Z,5.76
2024-03-14T04:43:12.494Z,5.75
2024-03-14T04:45:41.919Z,5.77
2024-03-14T04:48:08.550Z,5.78
2024-03-14T04:50:35.712Z,5.77
2024-03-14T04:53:02.166Z,5.78
2024-03-14T04:55:28.681Z,5.77
2024-03-14T04:57:55.166Z,5.77
2024-03-14T05:00:22.285Z,5.79
2024-03-14T05:02:50.786Z,5.81
2024-03-14T05:05:17.894Z,5.80
2024-03-14T05:07:45.481Z,5.81
2024-03-14T05:10:15.334Z,5.80
2024-03-14T05:12:43.760Z,5.78
2024-03-14T05:15:10.386Z,5.77
2024-03-14T05:17:37.564Z,5.78
2024-03-14T05:20:07.521Z,5.77
2024-03-14T05:22:34.044Z,5.71
2024-03-14T05:25:05.286Z,5.72
2024-03-14T05:27:31.859Z,5.70
2024-03-14T05:29:58.427Z,5.70
2024-03-14T05:32:29.452Z,5.73
2024-03-14T05:34:57.424Z,5.77
2024-03-14T05:37:28.387Z,5.73
2024-03-14T05:39:55.254Z,5.73
2024-03-14T05:42:21.744Z,5.74
2024-03-14T05:44:49.022Z,5.72
2024-03-14T05:47:16.939Z,5.76
2024-03-14T05:49:43.441Z,5.77
2024-03-14T05:52:11.274Z,5.78
2024-03-14T05:54:37.748Z,5.78
2024-03-14T05:57:04.581Z,5.81
2024-03-14T05:59:31.770Z,5.83
2024-03-14T06:01:58.303Z,5.84
2024-03-14T06:04:24.838Z,5.86
2024-03-14T06:06:51.299Z,5.87
2024-03-14T06:09:18.723Z,5.89
2024-03-14T06:11:45.285Z,5.89
2024-03-14T06:14:11.652Z,5.92
2024-03-14T06:16:38.371Z,5.96
2024-03-14T06:19:04.885Z,5.97
2024-03-14T06:21:31.466Z,6.02
2024-03-14T06:23:57.953Z,6.05
2024-03-14T06:26:24.529Z,6.05
2024-03-14T06:28:55.365Z,6.09
2024-03-14T06:31:21.780Z,6.12
2024-03-14T06:33:48.190Z,6.13
2024-03-14T06:36:14.664Z,6.16
2024-03-14T06:38:41.249Z,6.17
2024-03-14T06:41:08.371Z,6.19
2024-03-14T06:43:34.805Z,6.20
2024-03-14T06:46:01.187Z,6.22
2024-03-14T06:48:27.763Z,6.25
2024-03-14T06:50:54.328Z,6.27
2024-03-14T06:53:20.849Z,6.30
2024-03-14T06:55:48.032Z,6.36
2024-03-14T06:58:17.778Z,6.37
2024-03-14T07:00:44.426Z,6.42
2024-03-14T07:03:12.272Z,6.49
2024-03-14T07:05:38.898Z,6.52
2024-03-14T07:08:06.617Z,6.53
2024-03-14T07:10:33.400Z,6.54
2024-03-14T07:12:59.818Z,6.58
2024-03-14T07:15:26.540Z,6.63
2024-03-14T07:17:59.767Z,6.61
2024-03-14T07:20:34.329Z,6.65
2024-03-14T07:23:00.868Z,6.64
2024-03-14T07:25:27.437Z,6.67
2024-03-14T07:27:54.146Z,6.69
2024-03-14T07:30:25.712Z,6.68
2024-03-14T07:32:53.374Z,6.68
2024-03-14T07:35:20.013Z,6.72
2024-03-14T07:37:48.488Z,6.77
2024-03-14T07:40:18.152Z,6.85
2024-03-14T07:42:45.834Z,6.89
2024-03-14T07:45:18.667Z,6.88
2024-03-14T07:47:45.951Z,6.87
2024-03-14T07:50:12.679Z,6.80
2024-03-14T07:52:40.148Z,6.87
2024-03-14T07:55:08.437Z,6.87
2024-03-14T07:57:37.910Z,6.90
2024-03-14T08:00:16.193Z,6.94
2024-03-14T08:02:43.424Z,6.98
2024-03-14T08:05:10.070Z,7.04
2024-03-14T08:07:38.766Z,7.07
2024-03-14T08:10:06.514Z,7.09
2024-03-14T08:12:33.136Z,7.12
2024-03-14T08:15:18.207Z,7.12
2024-03-14T08:17:47.930Z,7.17
2024-03-14T08:20:17.372Z,7.19
2024-03-14T08:25:17.175Z,7.22
2024-03-14T08:27:45.032Z,7.28
2024-03-14T08:30:12.679Z,7.24
2024-03-14T08:32:39.875Z,7.22
2024-03-14T08:35:06.898Z,7.24
2024-03-14T08:37:33.338Z,7.28
2024-03-14T08:39:59.999Z,7.30
2024-03-14T08:42:40.103Z,7.31
2024-03-14T08:45:12.659Z,7.36
2024-03-14T08:47:39.968Z,7.33
2024-03-14T08:50:07.919Z,7.38
2024-03-14T08:52:34.997Z,7.43
2024-03-14T08:55:01.607Z,7.44
2024-03-14T08:57:28.092Z,7.53
2024-03-14T08:59:55.136Z,7.57
2024-03-14T09:02:24.376Z,7.57
2024-03-14T09:04:52.591Z,7.62
2024-03-14T09:07:19.815Z,7.67
2024-03-14T09:09:46.234Z,7.69
2024-03-14T09:12:17.833Z,7.70
2024-03-14T09:14:44.609Z,7.76
2024-03-14T09:17:12.791Z,7.82
2024-03-14T09:19:40.456Z,7.80
2024-03-14T09:22:07.538Z,7.81
2024-03-14T09:24:37.857Z,7.84
2024-03-14T09:27:06.045Z,7.92
2024-03-14T09:29:33.778Z,7.97
2024-03-14T09:32:00.512Z,7.94
2024-03-14T09:34:28.239Z,7.96
2024-03-14T09:36:56.584Z,7.94
2024-03-14T09:39:23.211Z,7.93
2024-03-14T09:41:49.902Z,7.99
2024-03-14T09:44:19.444Z,8.01
2024-03-14T09:47:11.717Z,8.06
2024-03-14T09:49:38.578Z,8.16
2024-03-14T09:52:06.689Z,8.19
2024-03-14T09:54:33.724Z,8.18
2024-03-14T09:57:00.853Z,8.20
2024-03-14T09:59:28.440Z,8.23
2024-03-14T10:01:55.174Z,8.29
2024-03-14T10:04:22.796Z,8.28
2024-03-14T10:06:49.663Z,8.28
2024-03-14T10:09:27.573Z,8.36
2024-03-14T10:12:03.544Z,8.36
2024-03-14T10:14:33.736Z,8.41
2024-03-14T10:17:00.534Z,8.40
2024-03-14T10:19:36.473Z,8.35
2024-03-14T10:22:05.571Z,8.37
2024-03-14T10:24:34.599Z,8.42
2024-03-14T10:27:03.212Z,8.45
2024-03-14T10:29:34.267Z,8.48
2024-03-14T10:32:01.561Z,8.45
2024-03-14T10:34:27.998Z,8.48
2024-03-14T10:36:55.598Z,8.54
2024-03-14T10:39:27.704Z,8.60
2024-03-14T10:41:54.304Z,8.59
2024-03-14T10:44:22.636Z,8.61
2024-03-14T10:46:51.311Z,8.69
2024-03-14T10:49:22.079Z,8.69
2024-03-14T10:51:55.634Z,8.85
2024-03-14T10:54:25.063Z,8.90
2024-03-14T10:56:51.697Z,8.94
2024-03-14T10:59:21.163Z,9.02
2024-03-14T11:01:58.103Z,9.03
2024-03-14T11:04:25.300Z,9.08
2024-03-14T11:06:53.549Z,9.10
2024-03-14T11:09:30.941Z,9.14
2024-03-14T11:12:04.952Z,9.15
2024-03-14T11:14:37.999Z,9.38
2024-03-14T11:17:04.803Z,9.57
2024-03-14T11:19:31.956Z,9.58
2024-03-14T11:21:59.284Z,9.71
2024-03-14T11:24:32.946Z,9.86
2024-03-14T11:27:02.941Z,10.07
2024-03-14T11:29:34.195Z,10.21
2024-03-14T11:32:23.500Z,10.34
2024-03-14T11:34:50.169Z,10.50
2024-03-14T11:37:17.757Z,10.60
2024-03-14T11:39:48.869Z,11.03
2024-03-14T11:42:17.335Z,11.31
2024-03-14T11:44:46.102Z,11.57
2024-03-14T11:47:15.348Z,11.88
2024-03-14T11:49:44.419Z,11.67
2024-03-14T11:52:12.629Z,11.50
2024-03-14T11:54:42.461Z,11.43
2024-03-14T11:57:10.550Z,11.49
2024-03-14T11:59:43.709Z,11.52
2024-03-14T12:02:17.504Z,11.47
2024-03-14T12:04:48.377Z,11.43
2024-03-14T12:07:14.972Z,11.49
2024-03-14T12:09:42.380Z,11.52
2024-03-14T12:12:09.785Z,11.38
2024-03-14T12:14:36.590Z,11.38
2024-03-14T12:17:03.248Z,11.48
2024-03-14T12:19:29.715Z,11.55
2024-03-14T12:21:56.182Z,11.67
2024-03-14T12:24:25.581Z,11.75
2024-03-14T12:26:54.648Z,11.86
2024-03-14T12:29:27.915Z,11.89
2024-03-14T12:31:56.545Z,11.95
2024-03-14T12:34:23.904Z,11.91
2024-03-14T12:36:53.325Z,12.37
2024-03-14T12:39:19.741Z,12.82
2024-03-14T12:41:46.356Z,13.14
2024-03-14T12:44:13.370Z,13.01
2024-03-14T12:46:39.965Z,12.85
2024-03-14T12:49:08.871Z,12.76
2024-03-14T12:51:35.393Z,12.59
2024-03-14T12:54:02.333Z,12.50
2024-03-14T12:56:29.257Z,12.50
2024-03-14T12:58:57.636Z,12.46
2024-03-14T13:01:28.776Z,12.43
2024-03-14T13:03:59.945Z,12.43
2024-03-14T13:06:29.568Z,12.48
2024-03-14T13:09:18.293Z,12.57
2024-03-14T13:12:15.977Z,12.62
2024-03-14T13:14:43.122Z,12.60
2024-03-14T13:17:14.570Z,12.60
2024-03-14T13:19:41.636Z,12.60
2024-03-14T13:22:12.330Z,12.56
2024-03-14T13:24:39.135Z,12.58
2024-03-14T13:27:06.359Z,12.61
2024-03-14T13:29:32.938Z,12.72
2024-03-14T13:32:02.058Z,12.60
2024-03-14T13:34:28.466Z,12.72
2024-03-14T13:36:55.046Z,12.87
2024-03-14T13:39:24.477Z,13.00
2024-03-14T13:41:50.890Z,13.08
2024-03-14T13:44:17.345Z,13.25
2024-03-14T13:46:46.066Z,13.45
2024-03-14T13:49:13.028Z,13.50
2024-03-14T13:51:40.303Z,13.51
2024-03-14T13:54:07.735Z,13.58
2024-03-14T13:56:34.406Z,13.74
2024-03-14T13:59:03.804Z,13.51
2024-03-14T14:01:35.231Z,13.25
2024-03-14T14:04:04.052Z,13.26
2024-03-14T14:06:31.017Z,13.26
2024-03-14T14:08:57.931Z,13.22
2024-03-14T14:11:25.181Z,13.18
2024-03-14T14:13:51.733Z,13.03
2024-03-14T14:16:19.618Z,13.10
2024-03-14T14:18:46.218Z,13.02
2024-03-14T14:21:12.738Z,13.15
2024-03-14T14:23:39.198Z,13.14
2024-03-14T14:26:05.910Z,13.02
2024-03-14T14:28:32.322Z,13.03
2024-03-14T14:30:58.870Z,13.08
2024-03-14T14:33:27.508Z,13.03
2024-03-14T14:35:55.056Z,13.15
2024-03-14T14:38:22.081Z,13.10
2024-03-14T14:40:51.880Z,13.24
2024-03-14T14:43:18.335Z,13.31
2024-03-14T14:45:45.091Z,13.46
2024-03-14T14:48:11.615Z,13.46
2024-03-14T14:50:38.608Z,13.51
2024-03-14T14:53:07.938Z,13.61
2024-03-14T14:55:34.404Z,13.75
2024-03-14T14:58:03.251Z,13.73
2024-03-14T15:00:29.841Z,13.76
2024-03-14T15:02:56.530Z,13.67
2024-03-14T15:05:23.167Z,13.65
2024-03-14T15:07:51.404Z,13.67
2024-03-14T15:10:19.222Z,13.82
2024-03-14T15:12:53.860Z,13.75
2024-03-14T15:15:25.190Z,13.73
2024-03-14T15:17:52.555Z,13.68
2024-03-14T15:20:22.574Z,13.62
2024-03-14T15:22:50.166Z,13.49
2024-03-14T15:25:17.929Z,13.58
2024-03-14T15:27:46.951Z,13.42
2024-03-14T15:30:13.621Z,13.34
2024-03-14T15:32:43.493Z,13.19
2024-03-14T15:35:12.360Z,13.10
2024-03-14T15:37:39.899Z,12.95
2024-03-14T15:40:10.953Z,12.79
2024-03-14T15:42:37.631Z,12.63
2024-03-14T15:45:10.253Z,12.56
2024-03-14T15:47:37.002Z,12.51
2024-03-14T15:50:05.840Z,12.49
2024-03-14T15:52:33.190Z,12.44
2024-03-14T15:54:59.684Z,12.41
2024-03-14T15:57:26.079Z,12.52
2024-03-14T15:59:54.494Z,12.60
2024-03-14T16:02:20.948Z,12.70
2024-03-14T16:04:47.749Z,12.69
2024-03-14T16:07:14.285Z,12.68
2024-03-14T16:09:44.321Z,12.62
2024-03-14T16:12:11.150Z,12.70
2024-03-14T16:14:37.736Z,12.71
2024-03-14T16:17:04.408Z,12.73
2024-03-14T16:19:31.233Z,12.64
2024-03-14T16:21:58.210Z,12.48
2024-03-14T16:24:26.937Z,12.39
2024-03-14T16:26:54.101Z,12.21
2024-03-14T16:29:21.561Z,12.11
2024-03-14T16:31:51.959Z,12.05
2024-03-14T16:34:18.436Z,11.97
2024-03-14T16:36:45.973Z,11.90
2024-03-14T16:39:19.894Z,11.85
2024-03-14T16:41:50.909Z,11.77
2024-03-14T16:44:17.482Z,11.70
2024-03-14T16:46:44.763Z,11.63
2024-03-14T16:49:12.947Z,11.56
2024-03-14T16:51:41.194Z,11.46
2024-03-14T16:54:09.856Z,11.40
2024-03-14T16:56:37.947Z,11.33
2024-03-14T16:59:07.062Z,11.23
2024-03-14T17:01:35.536Z,11.11
2024-03-14T17:04:02.003Z,11.03
2024-03-14T17:06:28.415Z,10.90
2024-03-14T17:08:55.336Z,10.79
2024-03-14T17:11:24.695Z,10.75
2024-03-14T17:13:53.166Z,10.69
2024-03-14T17:16:21.428Z,10.62
2024-03-14T17:18:48.418Z,10.54
2024-03-14T17:21:16.830Z,10.46
2024-03-14T17:23:43.305Z,10.41
2024-03-14T17:26:09.808Z,10.33
2024-03-14T17:28:36.769Z,10.26
2024-03-14T17:31:06.765Z,10.16
2024-03-14T17:33:36.698Z,10.10
2024-03-14T17:36:03.634Z,10.03
2024-03-14T17:38:30.025Z,10.07
2024-03-14T17:40:56.457Z,10.07
2024-03-14T17:43:23.581Z,10.02
2024-03-14T17:45:50.355Z,9.93
2024-03-14T17:48:16.888Z,9.84
2024-03-14T17:50:43.396Z,9.75
2024-03-14T17:53:09.800Z,9.62
2024-03-14T17:55:37.785Z,9.51
2024-03-14T17:58:05.336Z,9.42
2024-03-14T18:00:32.163Z,9.38
2024-03-14T18:03:00.349Z,9.31
2024-03-14T18:05:27.432Z,9.21
2024-03-14T18:07:53.904Z,9.20
2024-03-14T18:10:21.143Z,9.26
2024-03-14T18:12:47.991Z,9.34
2024-03-14T18:15:17.138Z,9.40
2024-03-14T18:17:44.162Z,9.47
2024-03-14T18:20:12.016Z,9.45
2024-03-14T18:22:42.220Z,9.38
2024-03-14T18:25:11.096Z,9.35
2024-03-14T18:27:38.537Z,9.31
2024-03-14T18:30:13.649Z,9.31
2024-03-14T18:32:44.224Z,9.27
2024-03-14T18:35:17.303Z,9.20
2024-03-14T18:37:47.827Z,9.14
2024-03-14T18:40:19.705Z,9.12
2024-03-14T18:42:48.220Z,9.11
2024-03-14T18:45:14.902Z,9.09
2024-03-14T18:47:41.561Z,9.08
2024-03-14T18:50:12.376Z,9.06
2024-03-14T18:52:42.408Z,9.03
2024-03-14T18:55:10.537Z,9.00
2024-03-14T18:57:37.368Z,8.92
2024-03-14T19:00:07.072Z,8.85
2024-03-14T19:02:34.815Z,8.78
2024-03-14T19:05:01.203Z,8.67
2024-03-14T19:07:27.695Z,8.60
2024-03-14T19:09:54.224Z,8.58
2024-03-14T19:12:20.700Z,8.50
2024-03-14T19:14:47.240Z,8.46
2024-03-14T19:17:19.227Z,8.40
2024-03-14T19:19:48.316Z,8.34
2024-03-14T19:22:14.749Z,8.30
2024-03-14T19:24:41.237Z,8.24
2024-03-14T19:27:08.306Z,8.19
2024-03-14T19:29:34.832Z,8.17
2024-03-14T19:32:01.946Z,8.14
2024-03-14T19:34:28.413Z,8.10
2024-03-14T19:36:54.912Z,8.04
2024-03-14T19:39:22.108Z,8.02
2024-03-14T19:41:49.492Z,8.03
2024-03-14T19:44:15.895Z,8.02
2024-03-14T19:46:45.223Z,7.98
2024-03-14T19:49:13.939Z,7.91
2024-03-14T19:51:40.455Z,7.86
2024-03-14T19:54:06.989Z,7.93
2024-03-14T19:56:37.141Z,7.96
2024-03-14T19:59:03.632Z,8.00
2024-03-14T20:01:30.031Z,8.03
2024-03-14T20:03:56.493Z,8.03
2024-03-14T20:06:24.026Z,8.02
2024-03-14T20:08:50.752Z,8.04
2024-03-14T20:11:17.397Z,8.02
2024-03-14T20:13:43.936Z,7.98
2024-03-14T20:16:15.368Z,7.93
2024-03-14T20:18:41.981Z,7.85
2024-03-14T20:21:11.276Z,7.78
2024-03-14T20:23:37.812Z,7.70
2024-03-14T20:26:12.313Z,7.63
2024-03-14T20:28:39.392Z,7.63
2024-03-14T20:31:06.131Z,7.66
2024-03-14T20:33:32.874Z,7.67
2024-03-14T20:36:00.155Z,7.65
2024-03-14T20:38:28.804Z,7.66
2024-03-14T20:40:58.678Z,7.63
2024-03-14T20:43:25.226Z,7.60
2024-03-14T20:45:51.771Z,7.62
2024-03-14T20:48:18.813Z,7.56
2024-03-14T20:50:45.738Z,7.50
2024-03-14T20:53:13.010Z,7.44
2024-03-14T20:55:59.609Z,7.42
2024-03-14T20:58:30.309Z,7.36
2024-03-14T21:00:56.728Z,7.39
2024-03-14T21:03:24.098Z,7.38
2024-03-14T21:05:53.144Z,7.37
2024-03-14T21:08:19.839Z,7.33
2024-03-14T21:10:46.360Z,7.30
2024-03-14T21:13:13.247Z,7.28
2024-03-14T21:15:40.620Z,7.26
2024-03-14T21:18:08.241Z,7.27
2024-03-14T21:20:34.765Z,7.29
2024-03-14T21:23:01.479Z,7.30
2024-03-14T21:25:27.918Z,7.28
2024-03-14T21:28:00.728Z,7.29
2024-03-14T21:30:30.708Z,7.26
2024-03-14T21:32:57.184Z,7.26
2024-03-14T21:35:24.198Z,7.25
2024-03-14T21:37:54.575Z,7.21
2024-03-14T21:40:24.138Z,7.22
2024-03-14T21:42:51.893Z,7.21
2024-03-14T21:45:19.936Z,7.20
2024-03-14T21:47:46.958Z,7.14
2024-03-14T21:50:15.712Z,7.08
2024-03-14T21:52:42.523Z,6.98
2024-03-14T21:55:09.371Z,6.91
2024-03-14T21:57:36.861Z,6.87
2024-03-14T22:00:04.036Z,6.85
2024-03-14T22:02:30.684Z,6.87
2024-03-14T22:04:59.089Z,6.90
2024-03-14T22:07:26.483Z,6.92
2024-03-14T22:09:53.186Z,6.92
2024-03-14T22:12:19.654Z,6.86
2024-03-14T22:14:46.284Z,6.82
2024-03-14T22:17:12.682Z,6.76
2024-03-14T22:19:39.870Z,6.74
2024-03-14T22:22:09.206Z,6.71
2024-03-14T22:24:35.877Z,6.68
2024-03-14T22:27:03.113Z,6.68
2024-03-14T22:29:29.689Z,6.66
2024-03-14T22:31:56.076Z,6.63
2024-03-14T22:34:22.610Z,6.62
2024-03-14T22:36:49.866Z,6.59
2024-03-14T22:39:16.612Z,6.55
2024-03-14T22:41:43.152Z,6.55
2024-03-14T22:44:11.454Z,6.53
2024-03-14T22:46:37.987Z,6.50
2024-03-14T22:49:07.088Z,6.45
2024-03-14T22:51:33.647Z,6.41
2024-03-14T22:54:00.092Z,6.37
2024-03-14T22:56:26.496Z,6.42
2024-03-14T22:58:52.951Z,6.46
2024-03-14T23:01:20.629Z,6.47
2024-03-14T23:03:47.396Z,6.47
2024-03-14T23:06:17.807Z,6.49
2024-03-14T23:08:45.139Z,6.51
2024-03-14T23:11:12.251Z,6.45
2024-03-14T23:13:38.700Z,6.42
2024-03-14T23:16:08.427Z,6.40
2024-03-14T23:18:34.994Z,6.42
2024-03-14T23:21:02.217Z,6.44
2024-03-14T23:23:28.824Z,6.44
2024-03-14T23:25:57.948Z,6.47
2024-03-14T23:28:27.369Z,6.49
2024-03-14T23:30:53.810Z,6.45
2024-03-14T23:33:20.338Z,6.42
2024-03-14T23:35:47.711Z,6.43
2024-03-14T23:38:14.349Z,6.41
2024-03-14T23:40:41.149Z,6.42
2024-03-14T23:43:07.677Z,6.41
2024-03-14T23:45:35.592Z,6.36
2024-03-14T23:48:02.704Z,6.35
2024-03-14T23:50:30.087Z,6.36
2024-03-14T23:52:56.690Z,6.33
2024-03-14T23:55:23.234Z,6.31
2024-03-14T23:57:49.932Z,6.25
